Terminal Aerodrome Forecast
Issued by NWS San Angelo, TX

Current Version | Previous Version | Text Only | Print | Product List | Glossary Off
Versions: 1 2 3 4 5 6 7 8 9 10 11 12 13 14

000
FTUS44 KSJT 200500
TAFABI
TAF
KABI 200520Z 2006/2106 15009KT P6SM BKN120
     FM201400 19018G25KT P6SM SCT250
     FM210100 15012KT P6SM SCT250=

USA.gov is the U.S. government's official web portal to all federal, state and local government web resources and services.